Time;durP1;ratioP1;P1;durP2;ratioP2;P2;SDS_P1;SDS_P2;PMS_P1;PMS_P2;Temp;Humidity;BMP_temperature;BMP_pressure;BME280_temperature;BME280_humidity;BME280_pressure;Samples;Min_cycle;Max_cycle;Signal;HPM_P1;HPM_P2
2023/09/13 00:01:31;;;;;;;9.27;6.83;;;22.20;1.00;;;;;;4991314;28;20668;-74
2023/09/13 00:03:58;;;;;;;9.03;6.47;;;22.20;1.00;;;;;;4989451;28;20429;-75
2023/09/13 00:06:24;;;;;;;13.50;7.20;;;22.20;1.00;;;;;;4992897;28;20198;-75
2023/09/13 00:08:50;;;;;;;8.87;7.37;;;22.50;1.00;;;;;;4992765;28;20541;-74
2023/09/13 00:11:15;;;;;;;8.30;7.33;;;22.20;1.00;;;;;;4992402;28;20516;-74
2023/09/13 00:13:41;;;;;;;11.00;8.00;;;22.10;1.00;;;;;;4992952;28;20250;-74
2023/09/13 00:16:07;;;;;;;11.17;7.93;;;20.10;1.00;;;;;;4991971;28;20298;-75
2023/09/13 00:18:33;;;;;;;11.53;8.13;;;22.10;1.00;;;;;;4992742;28;20432;-74
2023/09/13 00:20:58;;;;;;;14.63;8.03;;;22.00;1.00;;;;;;4990915;28;20175;-76
2023/09/13 00:23:24;;;;;;;9.60;8.40;;;21.90;1.00;;;;;;4992327;28;20183;-74
2023/09/13 00:25:50;;;;;;;8.83;7.40;;;21.90;1.00;;;;;;4992028;28;20568;-76
2023/09/13 00:28:16;;;;;;;12.30;8.40;;;21.90;1.00;;;;;;4991980;28;20721;-74
2023/09/13 00:30:41;;;;;;;8.60;7.70;;;21.80;1.00;;;;;;4992203;28;20186;-74
2023/09/13 00:33:07;;;;;;;9.13;7.50;;;21.80;1.00;;;;;;4991922;28;20792;-76
2023/09/13 00:35:32;;;;;;;14.63;8.37;;;21.70;1.00;;;;;;4991919;28;20236;-76
2023/09/13 00:37:58;;;;;;;10.27;7.33;;;21.80;1.00;;;;;;4991798;28;20253;-74
2023/09/13 00:40:23;;;;;;;13.93;6.60;;;21.50;1.00;;;;;;4992365;28;20186;-75
2023/09/13 00:42:49;;;;;;;10.10;7.03;;;21.50;1.00;;;;;;4992175;28;20197;-74
2023/09/13 00:45:15;;;;;;;8.47;6.87;;;21.60;1.00;;;;;;4991370;28;20692;-74
2023/09/13 00:47:42;;;;;;;10.77;6.93;;;21.70;1.00;;;;;;4992029;28;20497;-76
2023/09/13 00:50:10;;;;;;;8.37;7.30;;;21.60;1.00;;;;;;4991540;28;20191;-74
2023/09/13 00:52:37;;;;;;;7.93;6.87;;;21.60;1.00;;;;;;4992211;28;20836;-76
2023/09/13 00:55:05;;;;;;;10.60;7.60;;;21.50;1.00;;;;;;4990614;28;20536;-74
2023/09/13 00:57:31;;;;;;;8.40;6.83;;;21.50;1.00;;;;;;4992108;28;20963;-74
2023/09/13 00:59:57;;;;;;;8.00;6.83;;;21.60;1.00;;;;;;4991790;28;20480;-74
2023/09/13 01:02:23;;;;;;;10.90;7.27;;;21.50;1.00;;;;;;4983751;28;20434;-74
2023/09/13 01:04:48;;;;;;;9.17;7.57;;;21.50;1.00;;;;;;4991443;28;20516;-75
2023/09/13 01:07:15;;;;;;;8.40;7.00;;;21.50;1.00;;;;;;4991155;28;20237;-75
2023/09/13 01:09:40;;;;;;;12.77;7.60;;;22.40;1.00;;;;;;4992112;28;20186;-75
2023/09/13 01:12:06;;;;;;;10.07;7.60;;;21.50;1.00;;;;;;4991827;28;20429;-74
2023/09/13 01:14:33;;;;;;;9.77;7.80;;;21.40;1.00;;;;;;4991173;28;20496;-75
2023/09/13 01:17:16;;;;;;;13.13;8.03;;;21.20;1.00;;;;;;4991146;28;20202;-74
2023/09/13 01:20:06;;;;;;;12.20;7.10;;;21.30;1.00;;;;;;4991315;28;20448;-74
2023/09/13 01:22:46;;;;;;;11.23;7.33;;;21.30;1.00;;;;;;4984350;28;20940;-76
2023/09/13 01:25:26;;;;;;;10.40;7.63;;;21.30;1.00;;;;;;4990790;28;20449;-74
2023/09/13 01:28:29;;;;;;;9.20;7.77;;;21.30;1.00;;;;;;4991320;28;20665;-74
2023/09/13 01:30:55;;;;;;;11.00;6.93;;;21.30;1.00;;;;;;4987199;28;20950;-74
2023/09/13 01:33:20;;;;;;;10.93;6.93;;;21.20;1.00;;;;;;4990572;28;20434;-74
2023/09/13 01:35:46;;;;;;;11.27;7.20;;;21.20;1.00;;;;;;4990824;28;20210;-74
2023/09/13 01:38:11;;;;;;;8.60;7.00;;;21.20;1.00;;;;;;4990946;28;20189;-74
2023/09/13 01:40:40;;;;;;;8.30;7.23;;;21.20;1.00;;;;;;4991177;28;20273;-74
2023/09/13 01:43:07;;;;;;;8.67;6.80;;;21.30;1.00;;;;;;4990867;28;20194;-76
2023/09/13 01:45:33;;;;;;;9.13;7.00;;;21.30;1.00;;;;;;4990770;28;20633;-75
2023/09/13 01:48:00;;;;;;;10.83;7.10;;;21.30;1.00;;;;;;4990941;28;20436;-74
2023/09/13 01:50:26;;;;;;;11.00;6.40;;;21.30;1.00;;;;;;4973119;28;20923;-74
2023/09/13 01:52:51;;;;;;;9.70;6.90;;;21.30;1.00;;;;;;4990865;28;20461;-75
2023/09/13 01:55:17;;;;;;;10.20;7.80;;;21.30;1.00;;;;;;4990185;28;20210;-76
2023/09/13 01:57:43;;;;;;;9.30;7.60;;;21.20;1.00;;;;;;4990776;28;20210;-75
2023/09/13 02:00:09;;;;;;;8.63;6.70;;;21.20;1.00;;;;;;4990445;28;20190;-74
2023/09/13 02:02:34;;;;;;;10.50;6.77;;;21.10;1.00;;;;;;4984792;28;20182;-74
2023/09/13 02:05:00;;;;;;;10.40;7.83;;;21.00;1.00;;;;;;4990287;28;20449;-74
2023/09/13 02:07:26;;;;;;;11.33;6.80;;;21.00;1.00;;;;;;4972544;28;20189;-74
2023/09/13 02:09:52;;;;;;;8.50;7.20;;;21.00;1.00;;;;;;4990764;28;20483;-73
2023/09/13 02:12:18;;;;;;;9.80;7.10;;;21.00;1.00;;;;;;4990205;28;20194;-74
2023/09/13 02:14:43;;;;;;;9.00;7.33;;;20.90;1.00;;;;;;4990012;28;20819;-74
2023/09/13 02:17:09;;;;;;;9.87;7.47;;;20.90;1.00;;;;;;4990099;28;20670;-74
2023/09/13 02:19:35;;;;;;;7.93;6.93;;;20.80;1.00;;;;;;4990513;28;20186;-74
2023/09/13 02:22:01;;;;;;;8.90;7.10;;;20.70;1.00;;;;;;4990673;28;20518;-74
2023/09/13 02:24:26;;;;;;;8.70;7.13;;;20.70;1.00;;;;;;4989609;28;20499;-74
2023/09/13 02:26:56;;;;;;;9.57;6.80;;;20.70;1.00;;;;;;4990261;28;20191;-75
2023/09/13 02:29:22;;;;;;;8.63;6.93;;;20.70;1.00;;;;;;4989702;28;20221;-74
2023/09/13 02:31:47;;;;;;;7.50;6.53;;;20.70;1.00;;;;;;4990269;28;20430;-74
2023/09/13 02:34:13;;;;;;;8.80;6.90;;;20.70;1.00;;;;;;4989522;28;20217;-75
2023/09/13 02:36:38;;;;;;;8.37;6.87;;;20.70;1.00;;;;;;4990181;28;20209;-74
2023/09/13 02:39:04;;;;;;;8.63;6.90;;;20.70;1.00;;;;;;4990248;28;20189;-74
2023/09/13 02:41:30;;;;;;;9.07;7.33;;;20.60;1.00;;;;;;4989385;28;20194;-73
2023/09/13 02:43:55;;;;;;;15.10;7.67;;;20.50;1.00;;;;;;4971938;28;20179;-75
2023/09/13 02:46:21;;;;;;;11.90;7.40;;;20.50;1.00;;;;;;4989619;28;20194;-74
2023/09/13 02:48:46;;;;;;;8.63;7.20;;;20.50;1.00;;;;;;4990209;28;20210;-74
2023/09/13 02:51:15;;;;;;;12.53;7.37;;;20.50;1.00;;;;;;4989442;28;20602;-74
2023/09/13 02:53:41;;;;;;;11.30;7.20;;;20.50;1.00;;;;;;4989788;28;20548;-74
2023/09/13 02:56:07;;;;;;;13.10;7.27;;;20.60;1.00;;;;;;4989280;28;20461;-75
2023/09/13 02:58:33;;;;;;;10.30;7.30;;;20.60;1.00;;;;;;4981764;28;20198;-74
2023/09/13 03:01:03;;;;;;;8.80;6.77;;;20.40;1.00;;;;;;4989665;28;20409;-75
2023/09/13 03:03:32;;;;;;;9.47;7.80;;;20.40;1.00;;;;;;4982682;28;20198;-75
2023/09/13 03:06:13;;;;;;;13.40;7.73;;;20.30;1.00;;;;;;4989380;28;20448;-73
2023/09/13 03:08:38;;;;;;;13.23;7.97;;;20.30;1.00;;;;;;4989813;28;20437;-74
2023/09/13 03:11:13;;;;;;;9.43;7.57;;;20.20;1.00;;;;;;4989384;28;20410;-73
2023/09/13 03:13:39;;;;;;;10.83;7.40;;;20.10;1.00;;;;;;4989673;28;20190;-76
2023/09/13 03:16:18;;;;;;;13.53;7.60;;;20.10;1.00;;;;;;4988933;28;20465;-72
2023/09/13 03:18:45;;;;;;;9.30;7.30;;;20.10;1.00;;;;;;4990391;28;20257;-74
2023/09/13 03:21:11;;;;;;;9.77;7.00;;;20.10;1.00;;;;;;4993147;28;20464;-71
2023/09/13 03:23:38;;;;;;;9.70;6.80;;;20.10;1.00;;;;;;4993240;28;20449;-74
2023/09/13 03:26:23;;;;;;;12.07;7.70;;;20.10;1.00;;;;;;4993132;28;20495;-74
2023/09/13 03:28:53;;;;;;;9.37;7.73;;;20.00;1.00;;;;;;4993359;28;20471;-74
2023/09/13 03:31:21;;;;;;;10.87;7.80;;;19.90;1.00;;;;;;4993021;28;20726;-74
2023/09/13 03:33:48;;;;;;;13.43;7.47;;;19.90;1.00;;;;;;4992862;28;20791;-72
2023/09/13 03:36:15;;;;;;;9.50;7.40;;;19.80;1.00;;;;;;4992397;28;20473;-72
2023/09/13 03:38:42;;;;;;;14.60;8.00;;;19.80;1.00;;;;;;4993288;28;20426;-74
2023/09/13 03:41:12;;;;;;;12.03;7.67;;;19.90;1.00;;;;;;4993130;28;20418;-75
2023/09/13 03:43:38;;;;;;;7.93;6.90;;;19.90;1.00;;;;;;4985230;28;20418;-74
2023/09/13 03:46:05;;;;;;;14.67;8.00;;;19.90;1.00;;;;;;4992901;28;20437;-74
2023/09/13 03:48:31;;;;;;;9.30;7.37;;;19.80;1.00;;;;;;4992522;28;20186;-75
2023/09/13 03:50:57;;;;;;;10.27;6.83;;;19.90;1.00;;;;;;4992917;28;20453;-75
2023/09/13 03:53:24;;;;;;;8.47;7.00;;;19.90;1.00;;;;;;4992624;28;20747;-74
2023/09/13 03:55:50;;;;;;;12.17;7.53;;;19.90;1.00;;;;;;4992436;28;20308;-75
2023/09/13 03:58:15;;;;;;;9.73;6.90;;;19.90;1.00;;;;;;4992631;28;20518;-72
2023/09/13 04:00:41;;;;;;;10.23;6.90;;;19.90;1.00;;;;;;4992853;28;20538;-73
2023/09/13 04:03:06;;;;;;;9.37;6.70;;;19.90;1.00;;;;;;4985238;28;20267;-74
2023/09/13 04:05:32;;;;;;;14.03;7.80;;;19.90;1.00;;;;;;4992410;28;20202;-74
2023/09/13 04:07:58;;;;;;;11.17;6.50;;;19.90;1.00;;;;;;4992640;28;20230;-74
2023/09/13 04:10:24;;;;;;;16.43;7.63;;;19.90;1.00;;;;;;4992528;28;20225;-75
2023/09/13 04:12:50;;;;;;;9.93;6.93;;;20.00;1.00;;;;;;4992604;28;20568;-76
2023/09/13 04:15:16;;;;;;;10.33;7.17;;;20.10;1.00;;;;;;4991943;28;20233;-72
2023/09/13 04:17:41;;;;;;;9.27;6.97;;;20.10;1.00;;;;;;4992084;28;20203;-74
2023/09/13 04:20:09;;;;;;;9.37;7.00;;;20.10;1.00;;;;;;4974966;28;20484;-74
2023/09/13 04:22:35;;;;;;;10.87;7.20;;;20.10;1.00;;;;;;4991967;28;20186;-74
2023/09/13 04:25:01;;;;;;;10.00;7.80;;;20.10;1.00;;;;;;4991963;28;20441;-74
2023/09/13 04:27:26;;;;;;;11.70;7.80;;;20.10;1.00;;;;;;4991794;28;20196;-75
2023/09/13 04:29:54;;;;;;;10.47;7.27;;;20.00;1.00;;;;;;4992157;28;20285;-74
2023/09/13 04:32:20;;;;;;;9.43;6.87;;;20.00;1.00;;;;;;4991686;28;20217;-74
2023/09/13 04:34:46;;;;;;;11.13;6.77;;;20.00;1.00;;;;;;4974162;28;20489;-74
2023/09/13 04:37:12;;;;;;;8.30;6.53;;;20.00;1.00;;;;;;4992027;28;20282;-74
2023/09/13 04:39:38;;;;;;;8.90;7.13;;;20.10;1.00;;;;;;4991770;28;20179;-74
2023/09/13 04:42:03;;;;;;;10.13;7.43;;;20.20;1.00;;;;;;4992153;28;20241;-74
2023/09/13 04:44:29;;;;;;;9.80;7.90;;;20.30;1.00;;;;;;4991354;28;20277;-76
2023/09/13 04:46:57;;;;;;;12.70;7.70;;;20.40;1.00;;;;;;4991661;28;20181;-73
2023/09/13 04:49:22;;;;;;;7.80;6.93;;;20.40;1.00;;;;;;4991678;28;20469;-74
2023/09/13 04:51:48;;;;;;;16.13;7.60;;;20.30;1.00;;;;;;4991779;28;20437;-74
2023/09/13 04:54:13;;;;;;;9.27;7.43;;;20.10;1.00;;;;;;4991555;28;21932;-76
2023/09/13 04:56:39;;;;;;;8.57;6.87;;;20.10;1.00;;;;;;4991212;28;20689;-74
2023/09/13 04:59:05;;;;;;;11.20;7.80;;;20.10;1.00;;;;;;4991782;28;20178;-74
2023/09/13 05:01:31;;;;;;;8.70;7.40;;;20.00;1.00;;;;;;4991410;28;20181;-75
2023/09/13 05:03:57;;;;;;;9.03;7.47;;;20.00;1.00;;;;;;4991319;28;20426;-74
2023/09/13 05:06:23;;;;;;;12.50;7.77;;;20.00;1.00;;;;;;4991414;28;20518;-75
2023/09/13 05:08:52;;;;;;;10.80;7.80;;;20.00;1.00;;;;;;4991805;28;20444;-75
2023/09/13 05:11:18;;;;;;;9.77;7.37;;;20.00;1.00;;;;;;4991911;28;20190;-74
2023/09/13 05:13:47;;;;;;;10.83;7.30;;;20.20;1.00;;;;;;4991483;28;20433;-74
2023/09/13 05:16:14;;;;;;;9.50;7.20;;;20.20;1.00;;;;;;4990984;28;20649;-76
2023/09/13 05:18:39;;;;;;;11.23;7.40;;;20.30;1.00;;;;;;4991177;28;20495;-74
2023/09/13 05:21:05;;;;;;;9.60;7.33;;;20.30;1.00;;;;;;4991443;28;20426;-74
2023/09/13 05:23:31;;;;;;;8.50;7.27;;;20.40;1.00;;;;;;4990410;28;20194;-74
2023/09/13 05:25:56;;;;;;;13.63;8.00;;;20.40;1.00;;;;;;4990670;28;20206;-74
2023/09/13 05:28:22;;;;;;;11.53;7.37;;;20.50;1.00;;;;;;4990737;28;20262;-73
2023/09/13 05:30:48;;;;;;;10.10;7.83;;;20.50;1.00;;;;;;4991009;28;20186;-74
2023/09/13 05:33:14;;;;;;;13.70;7.83;;;20.60;1.00;;;;;;4990809;28;20179;-72
2023/09/13 05:35:40;;;;;;;9.50;7.97;;;20.70;1.00;;;;;;4990437;28;20512;-74
2023/09/13 05:38:05;;;;;;;10.47;7.60;;;20.80;1.00;;;;;;4991027;28;20214;-74
2023/09/13 05:40:31;;;;;;;11.10;7.07;;;20.80;1.00;;;;;;4990687;28;20248;-74
2023/09/13 05:42:57;;;;;;;9.50;7.10;;;20.80;1.00;;;;;;4990326;28;20179;-75
2023/09/13 05:45:23;;;;;;;8.60;7.00;;;20.80;1.00;;;;;;4990323;28;20293;-74
2023/09/13 05:47:50;;;;;;;9.03;6.80;;;20.90;1.00;;;;;;4982894;28;20418;-73
2023/09/13 05:50:15;;;;;;;11.00;7.40;;;20.60;1.00;;;;;;4990874;28;20450;-73
2023/09/13 05:52:41;;;;;;;10.40;7.53;;;20.80;1.00;;;;;;4990279;28;20935;-74
2023/09/13 05:55:08;;;;;;;12.63;7.33;;;20.80;1.00;;;;;;4990465;28;20202;-74
2023/09/13 05:57:33;;;;;;;11.30;7.40;;;20.80;1.00;;;;;;4990078;28;20462;-75
2023/09/13 05:59:59;;;;;;;10.53;7.30;;;20.80;1.00;;;;;;4990508;28;20480;-75
2023/09/13 06:02:24;;;;;;;9.13;7.20;;;20.80;1.00;;;;;;4989904;28;20684;-74
2023/09/13 06:04:50;;;;;;;9.80;7.13;;;20.80;1.00;;;;;;4985047;28;20615;-74
2023/09/13 06:07:15;;;;;;;13.83;7.40;;;20.80;1.00;;;;;;4990440;28;20210;-74
2023/09/13 06:09:41;;;;;;;9.73;7.47;;;20.70;1.00;;;;;;4990190;28;20183;-75
2023/09/13 06:12:07;;;;;;;9.60;7.40;;;20.70;1.00;;;;;;4990903;28;20190;-74
2023/09/13 06:14:32;;;;;;;10.23;7.70;;;20.60;1.00;;;;;;4989540;28;20210;-73
2023/09/13 06:16:58;;;;;;;11.20;7.20;;;20.60;1.00;;;;;;4990165;28;20247;-74
2023/09/13 06:19:24;;;;;;;10.87;7.40;;;20.60;1.00;;;;;;4990390;28;20206;-74
2023/09/13 06:21:49;;;;;;;10.10;7.37;;;20.60;1.00;;;;;;4989839;28;20189;-75
2023/09/13 06:24:15;;;;;;;11.02;7.00;;;20.70;1.00;;;;;;4989814;28;20412;-73
2023/09/13 06:26:40;;;;;;;13.57;7.93;;;20.70;1.00;;;;;;4989759;28;20257;-74
2023/09/13 06:29:06;;;;;;;10.60;8.10;;;20.70;1.00;;;;;;4989883;28;20687;-75
2023/09/13 06:31:32;;;;;;;10.00;7.97;;;20.80;1.00;;;;;;4989833;28;20248;-74
2023/09/13 06:33:58;;;;;;;8.80;6.90;;;20.90;1.00;;;;;;4989569;28;20553;-74
2023/09/13 06:36:24;;;;;;;9.20;7.00;;;20.90;1.00;;;;;;4990014;28;20468;-74
2023/09/13 06:38:50;;;;;;;11.93;7.50;;;21.00;1.00;;;;;;4989848;28;20183;-74
2023/09/13 06:41:16;;;;;;;11.03;6.90;;;21.20;1.00;;;;;;4990015;28;20249;-73
2023/09/13 06:43:44;;;;;;;11.07;7.27;;;21.30;1.00;;;;;;4989441;28;20509;-74
2023/09/13 06:46:10;;;;;;;15.37;7.40;;;21.30;1.00;;;;;;4989667;28;20613;-74
2023/09/13 06:48:36;;;;;;;10.40;7.53;;;21.40;1.00;;;;;;4989358;28;20525;-74
2023/09/13 06:51:02;;;;;;;12.50;7.57;;;21.50;1.00;;;;;;4989825;28;20792;-73
2023/09/13 06:53:27;;;;;;;11.50;7.40;;;21.50;1.00;;;;;;4989017;28;20425;-74
2023/09/13 06:55:53;;;;;;;8.73;7.07;;;21.70;1.00;;;;;;4989475;28;20453;-74
2023/09/13 06:58:18;;;;;;;9.70;7.57;;;21.90;1.00;;;;;;4989663;28;20229;-72
2023/09/13 07:00:44;;;;;;;11.40;7.37;;;21.90;1.00;;;;;;4989467;28;20237;-72
2023/09/13 07:03:09;;;;;;;10.10;7.20;;;21.80;1.00;;;;;;4988330;28;20277;-76
2023/09/13 07:05:35;;;;;;;11.73;6.80;;;21.70;1.00;;;;;;4989085;28;20276;-73
2023/09/13 07:08:00;;;;;;;7.80;6.40;;;21.70;1.00;;;;;;4989985;28;20190;-74
2023/09/13 07:10:27;;;;;;;11.63;7.07;;;21.50;1.00;;;;;;4989835;28;20194;-74
2023/09/13 07:12:52;;;;;;;9.60;6.77;;;21.40;1.00;;;;;;4989212;28;20182;-74
2023/09/13 07:15:18;;;;;;;10.70;6.80;;;21.40;1.00;;;;;;4989423;28;20444;-76
2023/09/13 07:17:44;;;;;;;7.30;5.53;;;21.30;1.00;;;;;;4971740;28;20214;-74
2023/09/13 07:20:11;;;;;;;8.47;6.60;;;21.30;1.00;;;;;;4989778;28;20706;-74
2023/09/13 07:22:37;;;;;;;15.50;6.40;;;21.30;1.00;;;;;;4989474;28;20186;-72
2023/09/13 07:25:06;;;;;;;12.27;6.10;;;21.10;1.00;;;;;;4989341;28;20454;-74
2023/09/13 07:27:32;;;;;;;8.30;6.47;;;21.20;1.00;;;;;;4987057;28;20434;-75
2023/09/13 07:29:58;;;;;;;7.97;6.07;;;21.20;1.00;;;;;;4987563;28;20433;-73
2023/09/13 07:32:25;;;;;;;8.23;5.80;;;21.50;1.00;;;;;;4989467;28;20576;-73
2023/09/13 07:34:50;;;;;;;8.00;5.93;;;21.80;1.00;;;;;;4988788;28;20264;-73
2023/09/13 07:37:16;;;;;;;10.20;5.90;;;21.90;1.00;;;;;;4989445;28;20858;-73
2023/09/13 07:39:42;;;;;;;9.67;5.67;;;22.20;1.00;;;;;;4989025;28;20199;-76
2023/09/13 07:42:08;;;;;;;9.37;6.07;;;22.30;1.00;;;;;;4989318;28;20194;-76
2023/09/13 07:44:33;;;;;;;7.50;6.20;;;22.50;1.00;;;;;;4989333;28;20445;-77
2023/09/13 07:46:59;;;;;;;8.97;5.97;;;22.50;1.00;;;;;;4981431;28;20314;-74
2023/09/13 07:49:25;;;;;;;7.30;6.00;;;22.40;1.00;;;;;;4989519;28;20252;-73
2023/09/13 07:51:51;;;;;;;8.17;6.27;;;22.30;1.00;;;;;;4988973;28;20182;-74
2023/09/13 07:54:17;;;;;;;7.73;6.20;;;22.10;1.00;;;;;;4989037;28;20528;-74
2023/09/13 07:56:43;;;;;;;9.53;6.97;;;22.10;1.00;;;;;;4988604;28;20549;-74
2023/09/13 07:59:13;;;;;;;7.90;6.67;;;22.20;1.00;;;;;;4989364;28;20241;-74
2023/09/13 08:01:39;;;;;;;9.43;6.50;;;22.20;1.00;;;;;;4986910;28;20472;-73
2023/09/13 08:04:05;;;;;;;10.77;6.77;;;22.40;1.00;;;;;;4988906;28;20434;-75
2023/09/13 08:06:30;;;;;;;7.70;6.40;;;22.30;1.00;;;;;;4975283;28;20237;-74
2023/09/13 08:08:57;;;;;;;11.30;7.10;;;22.50;1.00;;;;;;4992188;28;20711;-73
2023/09/13 08:11:23;;;;;;;8.30;6.30;;;22.70;1.00;;;;;;4992697;28;20191;-76
2023/09/13 08:13:48;;;;;;;8.53;6.30;;;22.90;1.00;;;;;;4992190;28;20430;-74
2023/09/13 08:16:14;;;;;;;9.17;7.07;;;23.10;1.00;;;;;;4992454;28;20572;-75
2023/09/13 08:18:39;;;;;;;10.40;6.23;;;23.20;1.00;;;;;;4992150;28;20178;-75
2023/09/13 08:21:05;;;;;;;9.17;7.23;;;23.20;1.00;;;;;;4992490;28;20271;-73
2023/09/13 08:23:30;;;;;;;14.00;6.90;;;23.40;1.00;;;;;;4992320;28;20186;-74
2023/09/13 08:25:56;;;;;;;8.80;6.80;;;24.00;1.00;;;;;;4991521;28;20206;-72
2023/09/13 08:28:23;;;;;;;9.73;6.47;;;24.70;1.00;;;;;;4992296;28;20235;-75
2023/09/13 08:30:49;;;;;;;7.43;6.63;;;25.10;1.00;;;;;;4991908;28;20676;-74
2023/09/13 08:33:16;;;;;;;10.20;6.80;;;25.40;1.00;;;;;;4991993;28;20430;-73
2023/09/13 08:35:42;;;;;;;9.20;6.40;;;26.50;1.00;;;;;;4991658;28;20202;-74
2023/09/13 08:38:07;;;;;;;7.10;6.00;;;27.60;1.00;;;;;;4992063;28;20986;-74
2023/09/13 08:40:33;;;;;;;8.93;6.53;;;28.50;1.00;;;;;;4992259;28;20182;-75
2023/09/13 08:42:59;;;;;;;8.47;6.53;;;29.70;1.00;;;;;;4991811;28;22839;-76
2023/09/13 08:45:25;;;;;;;8.27;6.82;;;29.80;1.00;;;;;;4991582;28;20207;-75
2023/09/13 08:47:55;;;;;;;6.60;5.85;;;29.40;1.00;;;;;;4991504;28;20185;-75
2023/09/13 08:50:26;;;;;;;6.60;5.80;;;29.00;1.00;;;;;;4992034;28;20308;-74
2023/09/13 08:52:53;;;;;;;7.40;6.45;;;28.90;1.00;;;;;;4991316;28;20187;-75
2023/09/13 08:55:20;;;;;;;9.10;6.38;;;28.00;1.00;;;;;;4991513;28;20206;-74
2023/09/13 08:57:47;;;;;;;7.73;6.20;;;27.70;1.00;;;;;;4991253;28;20620;-75
2023/09/13 09:00:14;;;;;;;8.47;6.40;;;27.20;1.00;;;;;;4991999;28;20539;-74
2023/09/13 09:02:42;;;;;;;7.20;6.20;;;26.90;1.00;;;;;;4991487;28;20178;-75
2023/09/13 09:05:11;;;;;;;7.00;6.10;;;26.70;1.00;;;;;;4988522;28;20216;-77
2023/09/13 09:07:38;;;;;;;8.17;6.27;;;27.00;1.00;;;;;;4991851;28;20704;-74
2023/09/13 09:10:11;;;;;;;7.90;5.80;;;26.80;1.00;;;;;;4991286;28;20191;-75
2023/09/13 09:12:45;;;;;;;7.47;5.90;;;26.50;1.00;;;;;;4991535;28;20685;-73
2023/09/13 09:15:13;;;;;;;6.70;5.97;;;26.90;1.00;;;;;;4991289;28;20457;-74
2023/09/13 09:17:41;;;;;;;7.33;6.43;;;27.70;1.00;;;;;;4990358;28;20198;-74
2023/09/13 09:20:07;;;;;;;7.33;6.50;;;27.50;1.00;;;;;;4991107;28;20615;-74
2023/09/13 09:22:34;;;;;;;7.00;6.10;;;27.30;1.00;;;;;;4991490;28;20179;-74
2023/09/13 09:25:00;;;;;;;10.50;6.50;;;27.30;1.00;;;;;;4990011;28;20305;-74
2023/09/13 09:27:25;;;;;;;9.30;6.03;;;27.00;1.00;;;;;;4991227;28;20269;-74
2023/09/13 09:30:03;;;;;;;8.27;6.40;;;26.80;1.00;;;;;;4991088;28;20249;-74
2023/09/13 09:32:29;;;;;;;8.80;6.77;;;26.90;1.00;;;;;;4991059;28;20197;-74
2023/09/13 09:34:57;;;;;;;7.37;5.83;;;26.90;1.00;;;;;;4972821;28;20202;-76
2023/09/13 09:37:29;;;;;;;8.53;6.13;;;26.70;1.00;;;;;;4990996;28;20632;-75
2023/09/13 09:39:55;;;;;;;11.60;6.70;;;26.80;1.00;;;;;;4990755;28;20178;-74
2023/09/13 09:42:20;;;;;;;8.17;6.70;;;26.80;1.00;;;;;;4991062;28;20240;-75
2023/09/13 09:44:46;;;;;;;7.50;6.50;;;26.60;1.00;;;;;;4990222;28;20221;-73
2023/09/13 09:47:13;;;;;;;8.57;7.50;;;26.30;1.00;;;;;;4990870;28;20285;-74
2023/09/13 09:49:39;;;;;;;9.20;7.23;;;25.90;1.00;;;;;;4990875;28;20445;-74
2023/09/13 09:52:07;;;;;;;9.50;6.80;;;26.00;1.00;;;;;;4990595;28;20487;-74
2023/09/13 09:54:34;;;;;;;7.50;6.60;;;26.60;1.00;;;;;;4990410;28;20333;-74
2023/09/13 09:56:59;;;;;;;10.37;6.90;;;28.20;1.00;;;;;;4990189;28;20199;-74
2023/09/13 09:59:28;;;;;;;6.90;6.20;;;29.60;1.00;;;;;;4990586;28;20187;-74
2023/09/13 10:02:01;;;;;;;6.90;6.17;;;30.40;1.00;;;;;;4986576;28;20186;-77
2023/09/13 10:04:29;;;;;;;9.07;6.40;;;29.70;1.00;;;;;;4990289;28;20206;-75
2023/09/13 10:06:57;;;;;;;8.40;6.30;;;28.60;1.00;;;;;;4990277;28;20186;-73
2023/09/13 10:09:23;;;;;;;7.70;6.63;;;28.60;1.00;;;;;;4990924;28;20182;-75
2023/09/13 10:11:56;;;;;;;7.63;6.60;;;28.90;1.00;;;;;;4989921;28;20205;-74
2023/09/13 10:14:26;;;;;;;9.25;6.43;;;29.50;1.00;;;;;;4990193;28;20202;-74
2023/09/13 10:16:54;;;;;;;6.93;6.13;;;29.50;1.00;;;;;;4989930;28;20333;-74
2023/09/13 10:19:27;;;;;;;7.03;5.93;;;29.70;1.00;;;;;;4990462;28;20178;-75
2023/09/13 10:21:54;;;;;;;7.20;5.75;;;30.00;1.00;;;;;;4989985;28;20183;-74
2023/09/13 10:24:22;;;;;;;8.35;6.85;;;30.70;1.00;;;;;;4989805;28;20207;-75
2023/09/13 10:26:50;;;;;;;10.23;6.00;;;30.60;1.00;;;;;;4990037;28;20190;-74
2023/09/13 10:29:29;;;;;;;10.80;6.30;;;29.80;1.00;;;;;;4989896;28;20206;-74
2023/09/13 10:32:00;;;;;;;6.82;5.93;;;29.30;1.00;;;;;;4989887;28;20186;-74
2023/09/13 10:34:31;;;;;;;8.65;6.40;;;29.00;1.00;;;;;;4989569;28;20237;-73
2023/09/13 10:37:12;;;;;;;10.57;6.70;;;29.90;1.00;;;;;;4989453;28;20238;-74
2023/09/13 10:39:50;;;;;;;9.77;6.70;;;27.70;1.00;;;;;;4990158;28;20186;-74
2023/09/13 10:42:17;;;;;;;7.87;6.10;;;27.20;1.00;;;;;;4982235;28;20190;-76
2023/09/13 10:44:44;;;;;;;7.47;6.40;;;26.80;1.00;;;;;;4989616;28;20198;-75
2023/09/13 10:47:11;;;;;;;9.27;6.53;;;26.40;1.00;;;;;;4989308;28;20660;-75
2023/09/13 10:49:38;;;;;;;9.27;6.50;;;26.00;1.00;;;;;;4989923;28;20206;-77
2023/09/13 10:52:06;;;;;;;9.83;6.40;;;25.60;1.00;;;;;;4989484;28;20444;-74
2023/09/13 10:54:32;;;;;;;8.40;6.67;;;25.30;1.00;;;;;;4989621;28;20244;-74
2023/09/13 10:56:58;;;;;;;9.70;6.70;;;25.10;1.00;;;;;;4989412;28;20501;-74
2023/09/13 10:59:25;;;;;;;11.13;6.47;;;25.00;1.00;;;;;;4990015;28;20266;-74
2023/09/13 11:01:51;;;;;;;8.67;7.03;;;24.90;1.00;;;;;;4985490;28;20686;-74
2023/09/13 11:04:19;;;;;;;8.80;6.60;;;24.90;1.00;;;;;;4981608;28;20507;-76
2023/09/13 11:06:46;;;;;;;13.03;8.27;;;24.60;1.00;;;;;;4989805;28;20484;-77
2023/09/13 11:09:17;;;;;;;12.63;8.50;;;24.30;1.00;;;;;;4989681;28;20520;-73
2023/09/13 11:11:51;;;;;;;11.93;8.60;;;23.80;1.00;;;;;;4990106;28;20479;-75
2023/09/13 11:14:29;;;;;;;12.90;8.87;;;23.40;1.00;;;;;;4989295;28;20532;-74
2023/09/13 11:16:57;;;;;;;18.80;9.47;;;23.00;1.00;;;;;;4989332;28;20460;-73
2023/09/13 11:19:30;;;;;;;14.10;10.60;;;22.80;1.00;;;;;;4989798;28;20438;-74
2023/09/13 11:22:04;;;;;;;15.80;9.33;;;22.60;1.00;;;;;;4989629;28;20517;-72
2023/09/13 11:24:41;;;;;;;12.40;9.27;;;22.30;1.00;;;;;;4972181;28;20568;-73
2023/09/13 11:27:11;;;;;;;11.37;9.23;;;22.00;1.00;;;;;;4989589;28;20439;-73
2023/09/13 11:29:47;;;;;;;12.50;9.13;;;21.80;1.00;;;;;;4989718;28;20438;-73
2023/09/13 11:32:17;;;;;;;9.93;8.77;;;21.70;1.00;;;;;;4989439;28;20436;-73
2023/09/13 11:34:43;;;;;;;13.20;8.50;;;21.60;1.00;;;;;;4989132;28;20464;-75
2023/09/13 11:37:10;;;;;;;11.27;9.23;;;21.60;1.00;;;;;;4989077;28;20883;-75
2023/09/13 11:39:36;;;;;;;11.20;9.73;;;21.80;1.00;;;;;;4990551;28;20269;-75
2023/09/13 11:42:04;;;;;;;13.00;9.83;;;22.10;1.00;;;;;;4993087;28;20836;-75
2023/09/13 11:44:30;;;;;;;10.30;9.10;;;22.60;1.00;;;;;;4993006;28;20453;-74
2023/09/13 11:46:56;;;;;;;14.73;10.47;;;22.70;1.00;;;;;;4992893;28;20840;-73
2023/09/13 11:49:23;;;;;;;10.63;9.20;;;22.90;1.00;;;;;;4993312;28;20187;-73
2023/09/13 11:51:55;;;;;;;13.57;9.23;;;23.20;1.00;;;;;;4993068;28;20197;-73
2023/09/13 11:54:22;;;;;;;18.07;10.40;;;24.00;1.00;;;;;;4992598;28;20959;-73
2023/09/13 11:56:51;;;;;;;13.33;9.67;;;23.80;1.00;;;;;;4992940;28;20595;-73
2023/09/13 11:59:22;;;;;;;10.17;8.37;;;24.20;1.00;;;;;;4992763;28;20436;-72
2023/09/13 12:01:49;;;;;;;10.70;9.60;;;24.80;1.00;;;;;;4992797;28;20942;-75
2023/09/13 12:04:15;;;;;;;10.43;8.70;;;27.20;1.00;;;;;;4992126;28;20514;-72
2023/09/13 12:06:45;;;;;;;12.17;8.63;;;27.20;1.00;;;;;;4992468;28;20579;-74
2023/09/13 12:09:18;;;;;;;9.20;8.17;;;28.00;1.00;;;;;;4992429;28;20190;-73
2023/09/13 12:11:45;;;;;;;9.00;7.73;;;29.50;1.00;;;;;;4992760;28;20214;-74
2023/09/13 12:14:11;;;;;;;9.25;7.57;;;32.70;1.00;;;;;;4992158;28;20659;-73
2023/09/13 12:16:37;;;;;;;9.05;6.90;;;32.60;1.00;;;;;;4992852;28;20333;-76
2023/09/13 12:19:04;;;;;;;9.05;6.15;;;32.60;1.00;;;;;;4992105;28;20665;-74
2023/09/13 12:21:29;;;;;;;9.40;6.28;;;31.70;1.00;;;;;;4992696;28;20260;-73
2023/09/13 12:23:55;;;;;;;8.25;6.20;;;30.90;1.00;;;;;;4992245;28;20668;-74
2023/09/13 12:26:21;;;;;;;7.45;6.63;;;30.10;1.00;;;;;;4991820;28;20205;-74
2023/09/13 12:28:48;;;;;;;8.85;6.70;;;30.00;1.00;;;;;;4992324;28;20661;-76
2023/09/13 12:31:15;;;;;;;9.57;6.90;;;30.10;1.00;;;;;;4974639;28;20246;-74
2023/09/13 12:33:45;;;;;;;7.80;6.50;;;30.00;1.00;;;;;;4991835;28;20353;-74
2023/09/13 12:36:11;;;;;;;10.25;6.40;;;29.70;1.00;;;;;;4991692;28;20206;-74
2023/09/13 12:38:42;;;;;;;8.07;6.60;;;29.20;1.00;;;;;;4992346;28;20182;-74
2023/09/13 12:41:16;;;;;;;7.55;6.65;;;28.50;1.00;;;;;;4991835;28;20190;-75
2023/09/13 12:43:44;;;;;;;10.13;7.10;;;28.10;1.00;;;;;;4991928;28;20265;-74
2023/09/13 12:46:17;;;;;;;7.30;5.73;;;27.60;1.00;;;;;;4991223;28;20218;-74
2023/09/13 12:48:44;;;;;;;8.63;6.73;;;27.30;1.00;;;;;;4992220;28;20189;-73
2023/09/13 12:51:12;;;;;;;9.50;6.60;;;26.90;1.00;;;;;;4991463;28;20266;-75
2023/09/13 12:53:38;;;;;;;8.40;6.13;;;26.70;1.00;;;;;;4991903;28;20697;-73